ADVERTISEMENT

iOS app on App Store Android app on Google Play

2017 \ Dodgers Run - October 1, 2017

Notes Pages Download Filter By
  1 2 [3] 4 5 6 7 8 9 10 11 12 13 14 15 16 17 18 19 20 21 22 23 24 25 26 27 28 29 30 31 32 33 34 35 36 37 38 39 40




Keyword Exact  
Division

Bib Division Last Name First Name Division Place Total Time Overall City State
4889 14-18 Male Reyes Steven 40 00:26:01 201 Huntington Park CA
5935 50-59 Female Vargas-hambly Elizabeth 5 00:26:02 202 Garden Grove CA
3648 14-18 Male Marroquin Matthew 41 00:26:03 203 Winnetka CA
4796 40-49 Male Ramirez Alfred 24 00:26:03 204 Moreno Valley CA
4782 50-59 Male Ramirez Marvin 13 00:26:05 205 Redondo Beach CA
5920 19-29 Female Vanko Mckenzie 9 00:26:05 206 Los Angeles CA
2647 19-29 Female Guzman Yulismairi 10 00:26:06 207 Santa Ana CA
542 1-13 Male Acosta Amory 18 00:26:08 208 Pasadena CA
2748 30-39 Female Hernandez Erica 7 00:26:09 209 Clovis CA
5230 19-29 Female Salazar Elizabeth 11 00:26:10 210 Baldwin Park CA
5381 19-29 Female Schneider Brooke 12 00:26:11 211 Thousand Oaks CA
1927 19-29 Male Elias Jose 36 00:26:11 212 Downey CA
4204 40-49 Male Nepomuceno Ed 25 00:26:11 213 La Palma CA
6620 40-49 Male Rubalcava Jesse 26 00:26:12 214 Los Angeles CA
3897 30-39 Male Mendoza Todd 43 00:26:13 215 Indio CA
5290 14-18 Male Sanchez Ignacio 42 00:26:13 216 Huntington Park CA
2631 30-39 Female Guzman Jeannette 8 00:26:14 217 Fontana CA
1597 14-18 Female Corralejo Jasmine 4 00:26:15 218 Chatsworth CA
2564 30-39 Female Gudiel Elizabeth 9 00:26:15 219 La Puente CA
2070 14-18 Female Fiscal Karina 5 00:26:16 220 Canoga Park CA
6096 30-39 Female White Alison 10 00:26:16 221 Los Angeles CA
1778 50-59 Male Dewysocki Fred 14 00:26:17 222 Los Angeles CA
468 30-39 Female Valenzuela April 11 00:26:18 223 Fontana CA
6455 14-18 Male Hernandez Andrew 43 00:26:19 224 Los Angeles CA
4999 14-18 Male Rodriguez Armando 44 00:26:19 225 Huntington Park CA
4970 30-39 Male Robles Francisco 44 00:26:22 226 Lynwood CA
3316 50-59 Male Legarreta Gabriel 15 00:26:23 227 Lake Balboa CA
6655 19-29 Male Tapia Jose 37 00:26:25 228 Garden Grove CA
5295 30-39 Female Sanchez Jessica 12 00:26:27 229 Pomona CA
4209 14-18 Female Nevarez Ericka 6 00:26:27 230 Winnetka CA
3487 14-18 Male Lovato Joshua 45 00:26:28 231 Sun Valley CA
491 19-29 Female Salazar Maritza 13 00:26:28 232 El Monte CA
6333 14-18 Female Chan Valerie 7 00:26:28 233 Sylmar CA
2812 30-39 Female Herrera Claudia 13 00:26:30 234 Ontario CA
3573 30-39 Female Magana Jessica 14 00:26:32 235 Sylmar CA
6476 1-13 Male Joseph Flores 19 00:26:32 236 Los Angeles CA
109 40-49 Male Rivera Cisco 27 00:26:34 237 Anaheim CA
1371 40-49 Male Cembrano Wilson Jao Tan 28 00:26:35 238 Alhambra CA
2752 40-49 Male Hernandez Felix 29 00:26:36 239 Clovis CA
1601 14-18 Male Correa Emilio 46 00:26:37 240 Inglewood CA
5108 14-18 Female Rosales Crystal 8 00:26:38 241 Huntington Park CA
21 30-39 Male Arenas Jr Rafael 45 00:26:39 242 Paramount CA
37 40-49 Female Cartagena Leonor 5 00:26:39 243 Tempe AZ
2639 40-49 Male Guzman Oscar 30 00:26:40 244 Northridge CA
6698 1-13 Male Zaragoza Andrew 20 00:26:42 245 North Hollywood CA
2186 14-18 Male Gaitan Walter 47 00:26:43 246 Inglewood CA
4826 19-29 Male Rapp Richard 38 00:26:45 247 Marina Del Ray CA
6264 30-39 Male Alvarez Tony 46 00:26:46 248 Whittier CA
955 60-69 Male Barth William 3 00:26:48 249 Los Angeles CA
5317 40-49 Male Sanchez Weston 31 00:26:49 250 Long Beach CA
5790 40-49 Male Tran Trung 32 00:26:50 251 Norwalk CA
2825 30-39 Male Hetherington Sean 47 00:26:51 252 Lake Balboa CA
991 14-18 Male Becerra Michael 48 00:26:51 253 Whittier CA
4898 30-39 Male Ribardo David 48 00:26:55 254 Los Angeles CA
3557 40-49 Male Maciel David 33 00:26:55 255 Santa Ana CA
2722 30-39 Female Heredia Dennise 15 00:26:56 256 Oxnard CA
4757 14-18 Male Ramirez Erik 49 00:26:57 257 Huntington Park CA
2420 19-29 Female Gomez Connie 14 00:26:58 258 Paramount CA
1505 30-39 Male Clayborne Leon 49 00:27:00 259 Carson CA
5875 40-49 Male Valdes-portela Frank 34 00:27:00 260 Van Nuys CA
82 50-59 Male Lopez Claudio 16 00:27:00 261 Los Angeles CA
4695 50-59 Male Quesada Ralph 17 00:27:02 262 Riverside CA
6148 40-49 Male Wright Michael 35 00:27:02 263 Santa Clarita CA
2094 40-49 Male Flores Ricardo 36 00:27:05 264 Whittier CA
1036 60-69 Male Bible Pat 4 00:27:06 265 Los Angeles CA
3364 40-49 Male Lim Skoti 37 00:27:08 266 Las Vegas NV
288 19-29 Female Bulahan Crissy 15 00:27:08 267 Los Angeles CA
102 40-49 Male Payes Thomas 38 00:27:08 268 Van Nuys CA
6223 30-39 Male Zea Jerry 50 00:27:08 269 Palmdale CA
6361 19-29 Female Dagnino Stephanie 16 00:27:09 270 Downey CA
4773 19-29 Male Ramirez Joshua 39 00:27:09 271 Los Angeles CA
1706 14-18 Male De Haro Abraham 50 00:27:11 272 Reseda CA
5265 30-39 Male Sam Allen 51 00:27:11 273 San Gabriel CA
1967 19-29 Female Espino- Panameno Jose 17 00:27:11 274 Garden Grove CA
3761 30-39 Male Mata Mark 52 00:27:11 275 Pasadena CA
2078 50-59 Male Flores Cesar 18 00:27:13 276 Montebello CA
1237 30-39 Male Calderon Ramon 53 00:27:15 277 Pasadena CA
1543 14-18 Female Condor Arleen 9 00:27:16 278 Chatsworth CA
3163 40-49 Male Klaren Jay 39 00:27:17 279 Los Angeles CA
73 30-39 Male Holness Conor 54 00:27:19 280 Culver City CA
6197 50-59 Male Zamora Diego 19 00:27:20 281 Long Beach CA
5006 30-39 Male Rodriguez Christopher 55 00:27:23 282 Whittier CA
4263 30-39 Male Nunez Ruben 56 00:27:23 283 El Monte CA
5939 50-59 Female Vasquez Coco 6 00:27:24 284 Alhambra CA
3230 30-39 Female Lamarque Diana 16 00:27:26 285 Pomona CA
5900 40-49 Female Valerio Consuelo 6 00:27:26 286 Bellfower CA
631 1-13 Male Aldape Hunter 21 00:27:28 287 Los Angeles CA
4867 30-39 Female Renteria Isabel 17 00:27:28 288 Sylmar CA
2169 19-29 Female Fuentes Elizabeth 18 00:27:28 289 Los ?ngeles CA
4528 14-18 Male Perez Christian 51 00:27:29 290 Bakersfield CA
6105 1-13 Male Wilkinson Isaac 22 00:27:29 291 Valencia CA
5047 50-59 Male Rodriguez Noe 20 00:27:29 292 Monrovia CA
1542 1-13 Female Condoll Taelynn 5 00:27:32 293 Lancaster CA
3142 30-39 Female Kim Minna 18 00:27:33 294 Las Vegas NV
3043 50-59 Female Jones Amanda 7 00:27:34 295 Los Angeles CA
6106 30-39 Female Wilkinson Michele 19 00:27:34 296 Camarillo CA
673 50-59 Female Alvarado Sandra 8 00:27:35 297 North Hills CA
3178 19-29 Female Koganei Kaoru 19 00:27:35 298 Los Angeles CA
6400 40-49 Male Fowler Jason 40 00:27:36 299 Cookeville TN
648 30-39 Female Allen Lana 20 00:27:36 300 Porter Ranch CA
Notes Pages Download Filter By
  1 2 [3] 4 5 6 7 8 9 10 11 12 13 14 15 16 17 18 19 20




Keyword Exact  
Division

Bib Division Last Name First Name Division Place Total Time Overall City State
3967 60-69 Male Mita Harry 4 00:53:59 201 Glendora CA
5605 60-69 Male Suzuki Hideaki 5 00:54:05 202 San Pedro CA
2859 40-49 Female Hoddy Beth 3 00:54:06 203 Lancaster CA
1466 40-49 Male Choi Eric 37 00:54:07 204 Arcadia CA
5239 30-39 Female Salazar Valerie 10 00:54:07 205 Rialto CA
2098 19-29 Female Flores Romo Mariana 6 00:54:10 206 Riverside CA
2502 40-49 Male Gonzalez Roberto 38 00:54:13 207 Bell CA
2275 30-39 Male Garcia Juan 59 00:54:16 208 Alta Loma CA
4504 30-39 Male Perales Otilio 60 00:54:21 209 Montebello CA
684 30-39 Male Alvarez Jeff 61 00:54:22 210 Granada Hills CA
2688 50-59 Male Harris David 17 00:54:25 211 Santa Monica CA
4289 40-49 Female Oconnell Heather 4 00:54:31 212 Sherman Oaks CA
6634 60-69 Male Sappell Joel 6 00:54:39 213 Los Angeles CA
5193 40-49 Male Saavedra Ray 39 00:54:46 214 Los Angeles CA
5627 40-49 Male Takeda Dennis 40 00:54:46 215 Lawndale CA
590 30-39 Male Aguilar Tomas 62 00:54:47 216 Rancho Cucamonga CA
821 40-49 Male Aul Thomas 41 00:54:51 217 Rowland Heights CA
1456 30-39 Male Chen Tommy 63 00:54:55 218 Los Angeles CA
2254 40-49 Female Garcia Edith 5 00:54:57 219 Pacoima CA
2374 14-18 Male Gills Grady 24 00:54:57 220 Arcadia CA
130 40-49 Male Vo Cong 42 00:54:58 221 Gardena CA
5633 30-39 Male Talledo Jorge 64 00:55:03 222 Pomona CA
2377 40-49 Male Giordano Jim 43 00:55:03 223 Anaheim CA
2346 30-39 Male Gaxiola Gilberto 65 00:55:03 224 Chino CA
925 40-49 Male Barbosa Eric 44 00:55:04 225 South Gate CA
79 30-39 Female Lazaro Elda 11 00:55:06 226 Los Angeles CA
6570 40-49 Female Otis Christine 6 00:55:06 227 Mission Viejo CA
4949 50-59 Male Rivera Ruben 18 00:55:06 228 Oxnard CA
6658 14-18 Female Toro Evelyn 2 00:55:06 229 Maywood CA
5065 14-18 Male Rodr?guez Gabriel 25 00:55:12 230 Los Angeles CA
3266 40-49 Male Lash Alan 45 00:55:14 231 Tustin CA
3701 19-29 Male Martinez Jonathan 41 00:55:15 232 Santa Monica CA
5959 30-39 Male Vazquez Jose 66 00:55:17 233 Montebello CA
5541 19-29 Female Sotelo Sonia 7 00:55:18 234 Los Angeles CA
128 40-49 Male Vasquez Omar 46 00:55:19 235 Rancho Cucamonga CA
933 50-59 Male Barker David 19 00:55:23 236 Tarzana CA
1468 40-49 Male Chong Kwang 47 00:55:24 237 Fullerton CA
6156 40-49 Male Yamada Akio 48 00:55:24 238 Pasadena CA
6447 14-18 Male Guzman Iver 26 00:55:28 239 Los Angeles CA
6076 40-49 Male Weinrieb Garret 49 00:55:28 240 Sherman Oaks CA
73 30-39 Male Holness Conor 67 00:55:30 241 Culver City CA
3869 30-39 Male Mendez Miguel 68 00:55:30 242 Wilmington CA
4899 1-13 Female Ricardez Samantha 1 00:55:36 243 Cypress CA
3296 14-18 Male Ledesma Hector 27 00:55:36 244 Maywood CA
5664 40-49 Male Teeples J 50 00:55:41 245 Cerritos CA
37 40-49 Female Cartagena Leonor 7 00:55:41 246 Tempe AZ
4795 19-29 Female Ramirez Yanet 8 00:55:42 247 Rialto CA
1823 50-59 Male Doan Michael 20 00:55:43 248 Covina CA
5555 30-39 Female Spielman Brenda 12 00:55:44 249 Anaheim CA
4972 40-49 Male Robles Guadalupe 51 00:55:45 250 Norwalk CA
1651 30-39 Male Cuaresma Justin 69 00:55:49 251 Los Angeles CA
6415 19-29 Male Garcia Erick 42 00:55:50 252 Fontana CA
625 30-39 Male Alcantara Jonathan 70 00:55:50 253 Los Angeles CA
131 30-39 Male Yamada Jeremy 71 00:55:50 254 Chino Hills CA
2573 40-49 Male Guerrero Miguel 52 00:55:51 255 Whittier CA
5984 30-39 Male Venegas David 72 00:55:52 256 Riverside CA
164 19-29 Female Guerrero Alyssa 9 00:55:53 257 Ontario CA
4900 60-69 Male Ricardez Saul 7 00:55:53 258 Alhambra CA
2042 30-39 Male Fernandez Jr Jesus 73 00:55:55 259 San Bernardino CA
4808 30-39 Male Ramos Adam 74 00:56:00 260 Placentia CA
4492 30-39 Male Pena Kevin 75 00:56:01 261 Van Nuys CA
1680 30-39 Male Dabroy Denver 76 00:56:02 262 Gardena CA
5577 40-49 Female Stewart Emma 8 00:56:04 263 Los Angeles CA
6113 50-59 Male Williams Ted 21 00:56:04 264 Winona Lake IN
1043 30-39 Female Bitolas Jamie 13 00:56:06 265 Palmdale CA
2706 30-39 Male Hayashibara Keoni 77 00:56:06 266 Burbank CA
4194 30-39 Male Neel Brandon 78 00:56:07 267 Glendale CA
3407 30-39 Female Llamas Muriel 14 00:56:09 268 South Gate CA
6522 40-49 Male Mcalinden Ryan 53 00:56:09 269 Los Angeles CA
6171 14-18 Male Yard Vincent 28 00:56:11 270 Irvine CA
6637 30-39 Male Scianni Gabriel 79 00:56:13 271 Ontario CA
930 19-29 Male Barger Zachery 43 00:56:14 272 Los Banos CA
2015 40-49 Female Fairbank Julie 9 00:56:14 273 Palmdale CA
5484 30-39 Male Sison Joseph 80 00:56:14 274 West Hills CA
1818 30-39 Male Dipre Jonathan 81 00:56:21 275 Orange CA
1817 30-39 Female Dipre Elizabeth 15 00:56:21 276 Orange CA
21 30-39 Male Arenas Jr Rafael 82 00:56:22 277 Paramount CA
3036 50-59 Female Johnson Rosalinda 3 00:56:25 278 Huntington Beach CA
2029 60-69 Female Farrell Ana 1 00:56:26 279 Littlerock CA
5594 50-59 Male Stuppy James 22 00:56:27 280 Temecula CA
190 40-49 Male Jefferson David 54 00:56:30 281 Westlake Village CA
3778 19-29 Male Mauricio Jose 44 00:56:36 282 Cudahy CA
4132 50-59 Male Muro Gilbert 23 00:56:38 283 Whittier CA
2809 14-18 Male Hernandez Basilio Juan 29 00:56:40 284 Los Angeless CA
3496 19-29 Male Loza Steven 45 00:56:41 285 Ontario CA
3279 19-29 Male Lazo Wilbert 46 00:56:44 286 Sun Valley CA
415 30-39 Female Costales Cristina 16 00:56:47 287 Los Angeles CA
613 60-69 Female Albanes Carmen 2 00:56:49 288 Canyon Country CA
5573 60-69 Male Stevens Bill 8 00:56:54 289 Dubuque IA
1822 30-39 Male Do John 83 00:56:54 290 Los Angeles CA
968 50-59 Male Battistini Pat 24 00:56:55 291 Santa Clarita CA
1179 14-18 Male Burgess Coleridge 30 00:56:56 292 La Verne CA
231 50-59 Male Cordobes Robby 25 00:56:58 293 Westchester CA
1010 19-29 Female Benitez Areli 10 00:57:01 294 Los Angeles CA
2734 30-39 Male Hernandez Cecilio 84 00:57:03 295 Bell Gardens CA
65 30-39 Female Gonzalez Karla 17 00:57:04 296 Riverside CA
5844 19-29 Male Umutyan Mark 47 00:57:04 297 South Pasadena CA
5533 30-39 Male Soria Michael 85 00:57:04 298 Glendale CA
6101 40-49 Male Wiedeman Rob 55 00:57:07 299 Saugus CA
1115 40-49 Male Brannon Larry 56 00:57:10 300 Placentia CA